PWSweather.com
Personal Weather Stations
Station Observations
IHTIMAN1
Neighbourhood 1, IhtimanBG 2050

Neighbourhood 1IhtimanBG 2050

Lat: 42.436852, Lon: 23.817921

Elevation: 2066

Station Type: Oregon Scientific WMR968

http://ihtiman-meteo.com

High Low Average
Temperature 81.5°F27.5°C 50.7°F10.4°C 64.8°F18.2°C
Dew Point 57.9°F14.4°C 43.2°F6.2°C 48.8°F9.3°C
Winds 9.2 mph 14.8 kmh Calm Calm 2.0 mph SSW3.2 kmh SSW
Wind Gusts 12.7 mph20.4 kmh -- 3.0 mph4.8 kmh
Humidity 96% 30% 61%
Pressure 30.21 in1023.0 mb 30.12 in1020.0 mb -
Precipitation 0.00 in0.0 mm - -
Hour Temp Dew Point Humidity Winds Wind Gusts Pressure Precip Precip Rate Daily Precip Total
12:00 AM 56.5°F13.6°C 49.0°F9.4°C 76% Calm Calm -- 30.12 in1020.0 mb - 0.00 in0.0 mm 0.00 in0.0 mm
12:10 AM 56.7°F13.7°C 49.5°F9.7°C 77% 2.3 mph ESE3.7 kmh ESE 5.8 mph9.3 kmh 30.12 in1020.0 mb - 0.00 in0.0 mm 0.00 in0.0 mm
12:20 AM 56.7°F13.7°C 49.9°F9.9°C 78% Calm Calm -- 30.12 in1020.0 mb - 0.00 in0.0 mm 0.00 in0.0 mm
12:30 AM 56.3°F13.5°C 49.5°F9.7°C 78% Calm Calm -- 30.12 in1020.0 mb - 0.00 in0.0 mm 0.00 in0.0 mm
12:40 AM 56.1°F13.4°C 49.4°F9.7°C 78% Calm Calm 5.8 mph9.3 kmh 30.12 in1020.0 mb - 0.00 in0.0 mm 0.00 in0.0 mm
12:50 AM 55.9°F13.3°C 49.5°F9.7°C 79% Calm Calm -- 30.12 in1020.0 mb - 0.00 in0.0 mm 0.00 in0.0 mm
01:00 AM 55.8°F13.2°C 49.3°F9.6°C 79% 2.3 mph N3.7 kmh N 3.5 mph5.6 kmh 30.12 in1020.0 mb - 0.00 in0.0 mm 0.00 in0.0 mm
01:10 AM 55.6°F13.1°C 49.5°F9.7°C 80% 2.3 mph NNW3.7 kmh NNW 3.5 mph5.6 kmh 30.12 in1020.0 mb - 0.00 in0.0 mm 0.00 in0.0 mm
01:20 AM 55.6°F13.1°C 49.5°F9.7°C 80% 2.3 mph NNW3.7 kmh NNW 2.3 mph3.7 kmh 30.12 in1020.0 mb - 0.00 in0.0 mm 0.00 in0.0 mm
01:30 AM 55.4°F13.0°C 49.3°F9.6°C 80% 1.2 mph WNW1.9 kmh WNW 2.3 mph3.7 kmh 30.12 in1020.0 mb - 0.00 in0.0 mm 0.00 in0.0 mm
01:40 AM 55.6°F13.1°C 49.8°F9.9°C 81% 1.2 mph NW1.9 kmh NW 3.5 mph5.6 kmh 30.12 in1020.0 mb - 0.00 in0.0 mm 0.00 in0.0 mm
01:50 AM 55.9°F13.3°C 50.1°F10.1°C 81% Calm Calm -- 30.12 in1020.0 mb - 0.00 in0.0 mm 0.00 in0.0 mm
02:00 AM 55.9°F13.3°C 50.5°F10.3°C 82% 2.3 mph NW3.7 kmh NW 3.5 mph5.6 kmh 30.12 in1020.0 mb - 0.00 in0.0 mm 0.00 in0.0 mm
02:10 AM 55.9°F13.3°C 50.5°F10.3°C 82% Calm Calm -- 30.12 in1020.0 mb - 0.00 in0.0 mm 0.00 in0.0 mm
02:20 AM 55.8°F13.2°C 50.0°F10.0°C 81% Calm Calm -- 30.12 in1020.0 mb - 0.00 in0.0 mm 0.00 in0.0 mm
02:30 AM 55.8°F13.2°C 50.0°F10.0°C 81% 3.5 mph NW5.6 kmh NW 4.6 mph7.4 kmh 30.12 in1020.0 mb - 0.00 in0.0 mm 0.00 in0.0 mm
02:40 AM 55.9°F13.3°C 50.5°F10.3°C 82% Calm Calm -- 30.12 in1020.0 mb - 0.00 in0.0 mm 0.00 in0.0 mm
02:50 AM 55.7°F13.2°C 50.0°F10.0°C 81% Calm Calm -- 30.12 in1020.0 mb - 0.00 in0.0 mm 0.00 in0.0 mm
03:00 AM 55.6°F13.1°C 49.8°F9.9°C 81% Calm Calm -- 30.12 in1020.0 mb - 0.00 in0.0 mm 0.00 in0.0 mm
03:10 AM 55.4°F13.0°C 50.0°F10.0°C 82% 3.5 mph W5.6 kmh W 3.5 mph5.6 kmh 30.12 in1020.0 mb - 0.00 in0.0 mm 0.00 in0.0 mm
03:20 AM 54.7°F12.6°C 49.3°F9.6°C 82% Calm Calm -- 30.12 in1020.0 mb - 0.00 in0.0 mm 0.00 in0.0 mm
03:30 AM 54.1°F12.3°C 48.8°F9.3°C 82% Calm Calm -- 30.12 in1020.0 mb - 0.00 in0.0 mm 0.00 in0.0 mm
03:40 AM 53.8°F12.1°C 48.4°F9.1°C 82% Calm Calm -- 30.12 in1020.0 mb - 0.00 in0.0 mm 0.00 in0.0 mm
03:50 AM 53.6°F12.0°C 48.6°F9.2°C 83% Calm Calm -- 30.12 in1020.0 mb - 0.00 in0.0 mm 0.00 in0.0 mm
04:00 AM 53.6°F12.0°C 48.6°F9.2°C 83% Calm Calm -- 30.12 in1020.0 mb - 0.00 in0.0 mm 0.00 in0.0 mm
04:10 AM 53.4°F11.9°C 48.7°F9.3°C 84% Calm Calm -- 30.12 in1020.0 mb - 0.00 in0.0 mm 0.00 in0.0 mm
04:20 AM 53.3°F11.8°C 48.9°F9.4°C 85% Calm Calm -- 30.12 in1020.0 mb - 0.00 in0.0 mm 0.00 in0.0 mm
04:30 AM 53.0°F11.7°C 49.0°F9.4°C 86% Calm Calm -- 30.12 in1020.0 mb - 0.00 in0.0 mm 0.00 in0.0 mm
04:40 AM 52.7°F11.5°C 48.6°F9.2°C 86% Calm Calm -- 30.12 in1020.0 mb - 0.00 in0.0 mm 0.00 in0.0 mm
04:50 AM 52.5°F11.4°C 48.8°F9.3°C 87% Calm Calm -- 30.12 in1020.0 mb - 0.00 in0.0 mm 0.00 in0.0 mm
05:00 AM 52.3°F11.3°C 48.9°F9.4°C 88% Calm Calm -- 30.12 in1020.0 mb - 0.00 in0.0 mm 0.00 in0.0 mm
05:10 AM 52.2°F11.2°C 48.7°F9.3°C 88% Calm Calm -- 30.12 in1020.0 mb - 0.00 in0.0 mm 0.00 in0.0 mm
05:20 AM 52.2°F11.2°C 49.0°F9.4°C 89% Calm Calm -- 30.12 in1020.0 mb - 0.00 in0.0 mm 0.00 in0.0 mm
05:30 AM 52.2°F11.2°C 49.3°F9.6°C 90% Calm Calm -- 30.12 in1020.0 mb - 0.00 in0.0 mm 0.00 in0.0 mm
05:40 AM 51.8°F11.0°C 49.0°F9.4°C 90% Calm Calm -- 30.12 in1020.0 mb - 0.00 in0.0 mm 0.00 in0.0 mm
05:50 AM 51.3°F10.7°C 48.8°F9.3°C 91% Calm Calm -- 30.12 in1020.0 mb - 0.00 in0.0 mm 0.00 in0.0 mm
06:00 AM 50.9°F10.5°C 48.4°F9.1°C 91% Calm Calm -- 30.15 in1021.0 mb - 0.00 in0.0 mm 0.00 in0.0 mm
06:10 AM 50.7°F10.4°C 48.2°F9.0°C 91% Calm Calm -- 30.15 in1021.0 mb - 0.00 in0.0 mm 0.00 in0.0 mm
06:20 AM 50.7°F10.4°C 48.5°F9.2°C 92% Calm Calm -- 30.15 in1021.0 mb - 0.00 in0.0 mm 0.00 in0.0 mm
06:30 AM 50.7°F10.4°C 48.5°F9.2°C 92% Calm Calm -- 30.15 in1021.0 mb - 0.00 in0.0 mm 0.00 in0.0 mm
06:40 AM 51.1°F10.6°C 48.8°F9.3°C 92% Calm Calm -- 30.15 in1021.0 mb - 0.00 in0.0 mm 0.00 in0.0 mm
06:50 AM 50.9°F10.5°C 48.9°F9.4°C 93% Calm Calm -- 30.15 in1021.0 mb - 0.00 in0.0 mm 0.00 in0.0 mm
07:00 AM 51.7°F10.9°C 50.1°F10.1°C 94% Calm Calm -- 30.15 in1021.0 mb - 0.00 in0.0 mm 0.00 in0.0 mm
07:10 AM 52.2°F11.2°C 50.8°F10.4°C 95% Calm Calm -- 30.15 in1021.0 mb - 0.00 in0.0 mm 0.00 in0.0 mm
07:20 AM 53.0°F11.7°C 51.9°F11.1°C 96% Calm Calm -- 30.15 in1021.0 mb - 0.00 in0.0 mm 0.00 in0.0 mm
07:30 AM 54.2°F12.3°C 53.0°F11.7°C 96% Calm Calm -- 30.15 in1021.0 mb - 0.00 in0.0 mm 0.00 in0.0 mm
07:40 AM 54.8°F12.7°C 53.4°F11.9°C 95% Calm Calm -- 30.15 in1021.0 mb - 0.00 in0.0 mm 0.00 in0.0 mm
07:50 AM 56.1°F13.4°C 54.1°F12.3°C 93% Calm Calm -- 30.12 in1020.0 mb - 0.00 in0.0 mm 0.00 in0.0 mm
08:00 AM 57.5°F14.2°C 54.8°F12.7°C 91% Calm Calm -- 30.15 in1021.0 mb - 0.00 in0.0 mm 0.00 in0.0 mm
08:10 AM 58.5°F14.7°C 55.8°F13.2°C 91% Calm Calm 3.5 mph5.6 kmh 30.15 in1021.0 mb - 0.00 in0.0 mm 0.00 in0.0 mm
08:20 AM 60.0°F15.6°C 57.1°F13.9°C 90% Calm Calm -- 30.15 in1021.0 mb - 0.00 in0.0 mm 0.00 in0.0 mm
08:30 AM 61.3°F16.3°C 57.1°F13.9°C 86% Calm Calm -- 30.15 in1021.0 mb - 0.00 in0.0 mm 0.00 in0.0 mm
08:40 AM 62.6°F17.0°C 57.4°F14.1°C 83% Calm Calm -- 30.15 in1021.0 mb - 0.00 in0.0 mm 0.00 in0.0 mm
08:50 AM 63.3°F17.4°C 57.7°F14.3°C 82% 2.3 mph W3.7 kmh W 3.5 mph5.6 kmh 30.12 in1020.0 mb - 0.00 in0.0 mm 0.00 in0.0 mm
09:00 AM 64.5°F18.1°C 57.9°F14.4°C 79% Calm Calm 2.3 mph3.7 kmh 30.15 in1021.0 mb - 0.00 in0.0 mm 0.00 in0.0 mm
09:10 AM 65.3°F18.5°C 56.8°F13.8°C 74% 1.2 mph W1.9 kmh W 3.5 mph5.6 kmh 30.15 in1021.0 mb - 0.00 in0.0 mm 0.00 in0.0 mm
09:20 AM 66.4°F19.1°C 56.3°F13.5°C 70% Calm Calm 3.5 mph5.6 kmh 30.15 in1021.0 mb - 0.00 in0.0 mm 0.00 in0.0 mm
09:30 AM 67.6°F19.8°C 55.5°F13.1°C 65% 1.2 mph NW1.9 kmh NW 5.8 mph9.3 kmh 30.15 in1021.0 mb - 0.00 in0.0 mm 0.00 in0.0 mm
09:40 AM 68.7°F20.4°C 54.7°F12.6°C 61% 3.5 mph SW5.6 kmh SW 5.8 mph9.3 kmh 30.15 in1021.0 mb - 0.00 in0.0 mm 0.00 in0.0 mm
09:50 AM 69.9°F21.1°C 54.5°F12.5°C 58% 4.6 mph WSW7.4 kmh WSW 5.8 mph9.3 kmh 30.15 in1021.0 mb - 0.00 in0.0 mm 0.00 in0.0 mm
10:00 AM 70.5°F21.4°C 54.1°F12.3°C 56% 2.3 mph SE3.7 kmh SE 3.5 mph5.6 kmh 30.15 in1021.0 mb - 0.00 in0.0 mm 0.00 in0.0 mm
10:10 AM 72.2°F22.3°C 53.6°F12.0°C 52% 2.3 mph WSW3.7 kmh WSW 4.6 mph7.4 kmh 30.15 in1021.0 mb - 0.00 in0.0 mm 0.00 in0.0 mm
10:20 AM 73.2°F22.9°C 52.3°F11.3°C 48% 3.5 mph SW5.6 kmh SW 5.8 mph9.3 kmh 30.15 in1021.0 mb - 0.00 in0.0 mm 0.00 in0.0 mm
10:30 AM 74.2°F23.4°C 52.7°F11.5°C 47% Calm Calm -- 30.15 in1021.0 mb - 0.00 in0.0 mm 0.00 in0.0 mm
10:40 AM 74.7°F23.7°C 52.5°F11.4°C 46% Calm Calm 2.3 mph3.7 kmh 30.15 in1021.0 mb - 0.00 in0.0 mm 0.00 in0.0 mm
10:50 AM 77.0°F25.0°C 52.8°F11.6°C 43% 4.6 mph S7.4 kmh S 5.8 mph9.3 kmh 30.15 in1021.0 mb - 0.00 in0.0 mm 0.00 in0.0 mm
11:00 AM 74.3°F23.5°C 49.7°F9.8°C 42% Calm Calm -- 30.15 in1021.0 mb - 0.00 in0.0 mm 0.00 in0.0 mm
11:10 AM 75.4°F24.1°C 50.7°F10.4°C 42% 3.5 mph NW5.6 kmh NW 4.6 mph7.4 kmh 30.15 in1021.0 mb - 0.00 in0.0 mm 0.00 in0.0 mm
11:20 AM 76.8°F24.9°C 51.9°F11.1°C 42% 1.2 mph 1.9 kmh 3.5 mph5.6 kmh 30.15 in1021.0 mb - 0.00 in0.0 mm 0.00 in0.0 mm
11:30 AM 76.5°F24.7°C 51.0°F10.6°C 41% 5.8 mph WSW9.3 kmh WSW 5.8 mph9.3 kmh 30.15 in1021.0 mb - 0.00 in0.0 mm 0.00 in0.0 mm
11:40 AM 77.4°F25.2°C 49.8°F9.9°C 38% 3.5 mph NNW5.6 kmh NNW 5.8 mph9.3 kmh 30.15 in1021.0 mb - 0.00 in0.0 mm 0.00 in0.0 mm
11:50 AM 78.6°F25.9°C 50.2°F10.1°C 37% 2.3 mph W3.7 kmh W 3.5 mph5.6 kmh 30.15 in1021.0 mb - 0.00 in0.0 mm 0.00 in0.0 mm
12:00 PM 78.9°F26.1°C 46.5°F8.1°C 32% 2.3 mph NE3.7 kmh NE 8.1 mph13.0 kmh 30.15 in1021.0 mb - 0.00 in0.0 mm 0.00 in0.0 mm
12:10 PM 79.2°F26.2°C 46.8°F8.2°C 32% 5.8 mph SE9.3 kmh SE 5.8 mph9.3 kmh 30.15 in1021.0 mb - 0.00 in0.0 mm 0.00 in0.0 mm
12:20 PM 80.4°F26.9°C 47.0°F8.3°C 31% 2.3 mph NE3.7 kmh NE 4.6 mph7.4 kmh 30.15 in1021.0 mb - 0.00 in0.0 mm 0.00 in0.0 mm
12:30 PM 80.8°F27.1°C 46.4°F8.0°C 30% 2.3 mph NNW3.7 kmh NNW 5.8 mph9.3 kmh 30.15 in1021.0 mb - 0.00 in0.0 mm 0.00 in0.0 mm
12:40 PM 80.1°F26.7°C 46.8°F8.2°C 31% 3.5 mph N5.6 kmh N 5.8 mph9.3 kmh 30.15 in1021.0 mb - 0.00 in0.0 mm 0.00 in0.0 mm
12:50 PM 81.5°F27.5°C 47.9°F8.8°C 31% 2.3 mph ESE3.7 kmh ESE 5.8 mph9.3 kmh 30.15 in1021.0 mb - 0.00 in0.0 mm 0.00 in0.0 mm
01:00 PM 79.9°F26.6°C 45.6°F7.6°C 30% 4.6 mph SE7.4 kmh SE 9.2 mph14.8 kmh 30.15 in1021.0 mb - 0.00 in0.0 mm 0.00 in0.0 mm
01:10 PM 79.8°F26.6°C 47.4°F8.6°C 32% 4.6 mph SSE7.4 kmh SSE 8.1 mph13.0 kmh 30.15 in1021.0 mb - 0.00 in0.0 mm 0.00 in0.0 mm
01:20 PM 77.7°F25.4°C 46.3°F7.9°C 33% 3.5 mph SSE5.6 kmh SSE 3.5 mph5.6 kmh 30.15 in1021.0 mb - 0.00 in0.0 mm 0.00 in0.0 mm
01:30 PM 77.1°F25.1°C 46.6°F8.1°C 34% 3.5 mph E5.6 kmh E 5.8 mph9.3 kmh 30.15 in1021.0 mb - 0.00 in0.0 mm 0.00 in0.0 mm
01:40 PM 76.7°F24.8°C 48.4°F9.1°C 37% 4.6 mph SE7.4 kmh SE 5.8 mph9.3 kmh 30.15 in1021.0 mb - 0.00 in0.0 mm 0.00 in0.0 mm
01:50 PM 77.4°F25.2°C 48.3°F9.1°C 36% 6.9 mph SSE11.1 kmh SSE 10.4 mph16.7 kmh 30.15 in1021.0 mb - 0.00 in0.0 mm 0.00 in0.0 mm
02:00 PM 77.9°F25.5°C 48.8°F9.3°C 36% 5.8 mph ESE9.3 kmh ESE 8.1 mph13.0 kmh 30.15 in1021.0 mb - 0.00 in0.0 mm 0.00 in0.0 mm
02:10 PM 77.2°F25.1°C 48.2°F9.0°C 36% 5.8 mph SE9.3 kmh SE 9.2 mph14.8 kmh 30.15 in1021.0 mb - 0.00 in0.0 mm 0.00 in0.0 mm
02:20 PM 77.0°F25.0°C 49.4°F9.7°C 38% 9.2 mph SSE14.8 kmh SSE 12.7 mph20.4 kmh 30.15 in1021.0 mb - 0.00 in0.0 mm 0.00 in0.0 mm
02:30 PM 77.5°F25.3°C 49.9°F9.9°C 38% 8.1 mph SSE13.0 kmh SSE 12.7 mph20.4 kmh 30.15 in1021.0 mb - 0.00 in0.0 mm 0.00 in0.0 mm
02:40 PM 78.0°F25.6°C 49.6°F9.8°C 37% 8.1 mph S13.0 kmh S 11.5 mph18.5 kmh 30.15 in1021.0 mb - 0.00 in0.0 mm 0.00 in0.0 mm
02:50 PM 76.5°F24.7°C 49.0°F9.4°C 38% 8.1 mph SE13.0 kmh SE 11.5 mph18.5 kmh 30.15 in1021.0 mb - 0.00 in0.0 mm 0.00 in0.0 mm
03:00 PM 76.0°F24.4°C 49.3°F9.6°C 39% 4.6 mph ESE7.4 kmh ESE 8.1 mph13.0 kmh 30.15 in1021.0 mb - 0.00 in0.0 mm 0.00 in0.0 mm
03:10 PM 78.4°F25.8°C 51.4°F10.8°C 39% 6.9 mph SSE11.1 kmh SSE 8.1 mph13.0 kmh 30.15 in1021.0 mb - 0.00 in0.0 mm 0.00 in0.0 mm
03:20 PM 79.2°F26.2°C 50.7°F10.4°C 37% 6.9 mph SSE11.1 kmh SSE 11.5 mph18.5 kmh 30.15 in1021.0 mb - 0.00 in0.0 mm 0.00 in0.0 mm
03:30 PM 78.8°F26.0°C 50.3°F10.2°C 37% 6.9 mph SSE11.1 kmh SSE 9.2 mph14.8 kmh 30.15 in1021.0 mb - 0.00 in0.0 mm 0.00 in0.0 mm
03:40 PM 76.8°F24.9°C 49.3°F9.6°C 38% 4.6 mph ESE7.4 kmh ESE 5.8 mph9.3 kmh 30.15 in1021.0 mb - 0.00 in0.0 mm 0.00 in0.0 mm
03:50 PM 76.3°F24.6°C 49.5°F9.7°C 39% 5.8 mph SSE9.3 kmh SSE 9.2 mph14.8 kmh 30.15 in1021.0 mb - 0.00 in0.0 mm 0.00 in0.0 mm
04:00 PM 76.6°F24.8°C 49.8°F9.9°C 39% 6.9 mph SE11.1 kmh SE 10.4 mph16.7 kmh 30.15 in1021.0 mb - 0.00 in0.0 mm 0.00 in0.0 mm
04:10 PM 75.9°F24.4°C 49.1°F9.5°C 39% 5.8 mph SE9.3 kmh SE 8.1 mph13.0 kmh 30.15 in1021.0 mb - 0.00 in0.0 mm 0.00 in0.0 mm
04:20 PM 75.6°F24.2°C 48.2°F9.0°C 38% 6.9 mph E11.1 kmh E 8.1 mph13.0 kmh 30.15 in1021.0 mb - 0.00 in0.0 mm 0.00 in0.0 mm
04:30 PM 76.4°F24.7°C 48.9°F9.4°C 38% 5.8 mph ESE9.3 kmh ESE 10.4 mph16.7 kmh 30.15 in1021.0 mb - 0.00 in0.0 mm 0.00 in0.0 mm
04:40 PM 76.4°F24.7°C 47.4°F8.6°C 36% 4.6 mph SE7.4 kmh SE 8.1 mph13.0 kmh 30.15 in1021.0 mb - 0.00 in0.0 mm 0.00 in0.0 mm
04:50 PM 75.7°F24.3°C 46.9°F8.3°C 36% 5.8 mph SE9.3 kmh SE 6.9 mph11.1 kmh 30.15 in1021.0 mb - 0.00 in0.0 mm 0.00 in0.0 mm
05:00 PM 75.3°F24.1°C 47.3°F8.5°C 37% 2.3 mph E3.7 kmh E 4.6 mph7.4 kmh 30.15 in1021.0 mb - 0.00 in0.0 mm 0.00 in0.0 mm
05:10 PM 74.9°F23.8°C 46.9°F8.3°C 37% 6.9 mph SSE11.1 kmh SSE 8.1 mph13.0 kmh 30.15 in1021.0 mb - 0.00 in0.0 mm 0.00 in0.0 mm
05:20 PM 74.4°F23.6°C 46.4°F8.0°C 37% 4.6 mph SE7.4 kmh SE 5.8 mph9.3 kmh 30.15 in1021.0 mb - 0.00 in0.0 mm 0.00 in0.0 mm
05:30 PM 73.5°F23.1°C 44.9°F7.2°C 36% 5.8 mph ESE9.3 kmh ESE 8.1 mph13.0 kmh 30.15 in1021.0 mb - 0.00 in0.0 mm 0.00 in0.0 mm
05:40 PM 73.0°F22.8°C 45.9°F7.7°C 38% 3.5 mph SE5.6 kmh SE 5.8 mph9.3 kmh 30.15 in1021.0 mb - 0.00 in0.0 mm 0.00 in0.0 mm
05:50 PM 72.9°F22.7°C 45.1°F7.3°C 37% 4.6 mph SE7.4 kmh SE 8.1 mph13.0 kmh 30.15 in1021.0 mb - 0.00 in0.0 mm 0.00 in0.0 mm
06:00 PM 72.3°F22.4°C 45.3°F7.4°C 38% 3.5 mph SSE5.6 kmh SSE 5.8 mph9.3 kmh 30.15 in1021.0 mb - 0.00 in0.0 mm 0.00 in0.0 mm
06:10 PM 71.8°F22.1°C 44.8°F7.1°C 38% 4.6 mph SE7.4 kmh SE 5.8 mph9.3 kmh 30.15 in1021.0 mb - 0.00 in0.0 mm 0.00 in0.0 mm
06:20 PM 71.1°F21.7°C 44.2°F6.8°C 38% 1.2 mph SE1.9 kmh SE 3.5 mph5.6 kmh 30.15 in1021.0 mb - 0.00 in0.0 mm 0.00 in0.0 mm
06:30 PM 70.4°F21.3°C 44.2°F6.8°C 39% 2.3 mph ESE3.7 kmh ESE 3.5 mph5.6 kmh 30.18 in1022.0 mb - 0.00 in0.0 mm 0.00 in0.0 mm
06:40 PM 69.8°F21.0°C 43.7°F6.5°C 39% 3.5 mph ESE5.6 kmh ESE 3.5 mph5.6 kmh 30.18 in1022.0 mb - 0.00 in0.0 mm 0.00 in0.0 mm
06:50 PM 69.1°F20.6°C 43.7°F6.5°C 40% Calm Calm 2.3 mph3.7 kmh 30.18 in1022.0 mb - 0.00 in0.0 mm 0.00 in0.0 mm
07:00 PM 68.5°F20.3°C 43.9°F6.6°C 41% 2.3 mph ESE3.7 kmh ESE 3.5 mph5.6 kmh 30.18 in1022.0 mb - 0.00 in0.0 mm 0.00 in0.0 mm
07:10 PM 68.2°F20.1°C 43.6°F6.4°C 41% Calm Calm -- 30.18 in1022.0 mb - 0.00 in0.0 mm 0.00 in0.0 mm
07:20 PM 67.6°F19.8°C 43.7°F6.5°C 42% Calm Calm -- 30.18 in1022.0 mb - 0.00 in0.0 mm 0.00 in0.0 mm
07:30 PM 67.0°F19.4°C 43.8°F6.6°C 43% Calm Calm -- 30.18 in1022.0 mb - 0.00 in0.0 mm 0.00 in0.0 mm
07:40 PM 66.4°F19.1°C 43.2°F6.2°C 43% Calm Calm -- 30.18 in1022.0 mb - 0.00 in0.0 mm 0.00 in0.0 mm
07:50 PM 65.8°F18.8°C 43.8°F6.6°C 45% Calm Calm -- 30.18 in1022.0 mb - 0.00 in0.0 mm 0.00 in0.0 mm
08:00 PM 65.1°F18.4°C 43.8°F6.6°C 46% Calm Calm -- 30.18 in1022.0 mb - 0.00 in0.0 mm 0.00 in0.0 mm
08:10 PM 64.4°F18.0°C 43.7°F6.5°C 47% Calm Calm -- 30.18 in1022.0 mb - 0.00 in0.0 mm 0.00 in0.0 mm
08:20 PM 63.8°F17.7°C 43.8°F6.6°C 48% Calm Calm -- 30.18 in1022.0 mb - 0.00 in0.0 mm 0.00 in0.0 mm
08:30 PM 63.3°F17.4°C 43.8°F6.6°C 49% Calm Calm -- 30.21 in1023.0 mb - 0.00 in0.0 mm 0.00 in0.0 mm
08:40 PM 63.0°F17.2°C 44.5°F6.9°C 51% Calm Calm -- 30.21 in1023.0 mb - 0.00 in0.0 mm 0.00 in0.0 mm
08:50 PM 62.6°F17.0°C 44.7°F7.1°C 52% 1.2 mph SE1.9 kmh SE 2.3 mph3.7 kmh 30.21 in1023.0 mb - 0.00 in0.0 mm 0.00 in0.0 mm
09:00 PM 62.4°F16.9°C 45.5°F7.5°C 54% Calm Calm -- 30.21 in1023.0 mb - 0.00 in0.0 mm 0.00 in0.0 mm
09:10 PM 62.4°F16.9°C 46.0°F7.8°C 55% 1.2 mph SE1.9 kmh SE 2.3 mph3.7 kmh 30.21 in1023.0 mb - 0.00 in0.0 mm 0.00 in0.0 mm
09:20 PM 62.3°F16.8°C 45.9°F7.7°C 55% Calm Calm -- 30.21 in1023.0 mb - 0.00 in0.0 mm 0.00 in0.0 mm
09:30 PM 62.1°F16.7°C 46.2°F7.9°C 56% Calm Calm -- 30.21 in1023.0 mb - 0.00 in0.0 mm 0.00 in0.0 mm
09:40 PM 61.5°F16.4°C 45.7°F7.6°C 56% Calm Calm -- 30.21 in1023.0 mb - 0.00 in0.0 mm 0.00 in0.0 mm
09:50 PM 61.1°F16.2°C 45.3°F7.4°C 56% Calm Calm -- 30.21 in1023.0 mb - 0.00 in0.0 mm 0.00 in0.0 mm
10:00 PM 60.6°F15.9°C 45.3°F7.4°C 57% Calm Calm -- 30.21 in1023.0 mb - 0.00 in0.0 mm 0.00 in0.0 mm
10:10 PM 60.3°F15.7°C 45.4°F7.4°C 58% Calm Calm -- 30.21 in1023.0 mb - 0.00 in0.0 mm 0.00 in0.0 mm
10:20 PM 60.0°F15.6°C 46.1°F7.8°C 60% 2.3 mph WSW3.7 kmh WSW 3.5 mph5.6 kmh 30.21 in1023.0 mb - 0.00 in0.0 mm 0.00 in0.0 mm
10:30 PM 59.5°F15.3°C 46.1°F7.8°C 61% Calm Calm -- 30.21 in1023.0 mb - 0.00 in0.0 mm 0.00 in0.0 mm
10:40 PM 59.2°F15.1°C 46.2°F7.9°C 62% Calm Calm -- 30.21 in1023.0 mb - 0.00 in0.0 mm 0.00 in0.0 mm
10:50 PM 58.8°F14.9°C 46.2°F7.9°C 63% Calm Calm -- 30.21 in1023.0 mb - 0.00 in0.0 mm 0.00 in0.0 mm
11:00 PM 58.8°F14.9°C 46.7°F8.2°C 64% Calm Calm -- 30.21 in1023.0 mb - 0.00 in0.0 mm 0.00 in0.0 mm
11:10 PM 58.8°F14.9°C 47.1°F8.4°C 65% Calm Calm -- 30.21 in1023.0 mb - 0.00 in0.0 mm 0.00 in0.0 mm
11:20 PM 58.8°F14.9°C 47.5°F8.6°C 66% Calm Calm -- 30.21 in1023.0 mb - 0.00 in0.0 mm 0.00 in0.0 mm
11:30 PM 58.6°F14.8°C 47.3°F8.5°C 66% Calm Calm -- 30.21 in1023.0 mb - 0.00 in0.0 mm 0.00 in0.0 mm
11:40 PM 58.5°F14.7°C 47.1°F8.4°C 66% Calm Calm -- 30.21 in1023.0 mb - 0.00 in0.0 mm 0.00 in0.0 mm
11:50 PM 58.3°F14.6°C 47.3°F8.5°C 67% Calm Calm -- 30.21 in1023.0 mb - 0.00 in0.0 mm 0.00 in0.0 mm